createdAt,value
2022-12-19T00:04:12.250Z,69.10
2022-12-19T00:07:13.999Z,67.10
2022-12-19T00:10:15.948Z,62.90
2022-12-19T00:13:17.572Z,63.00
2022-12-19T00:16:21.894Z,59.80
2022-12-19T00:19:23.566Z,60.80
2022-12-19T00:25:26.996Z,51.70
2022-12-19T00:28:29.576Z,62.00
2022-12-19T00:31:33.892Z,59.20
2022-12-19T00:34:35.767Z,54.80
2022-12-19T00:37:37.476Z,62.50
2022-12-19T00:40:42.567Z,59.20
2022-12-19T00:43:44.979Z,58.80
2022-12-19T00:46:52.702Z,59.90
2022-12-19T00:49:54.867Z,70.50
2022-12-19T00:52:56.623Z,69.60
2022-12-19T00:56:04.828Z,73.50
2022-12-19T00:59:06.600Z,73.20
2022-12-19T01:02:08.436Z,67.50
2022-12-19T01:05:10.371Z,72.30
2022-12-19T01:08:12.055Z,66.40
2022-12-19T01:14:22.297Z,82.10
2022-12-19T01:17:24.420Z,78.00
2022-12-19T01:20:29.902Z,75.60
2022-12-19T01:23:32.114Z,83.60
2022-12-19T01:26:34.682Z,91.50
2022-12-19T01:32:50.191Z,74.90
2022-12-19T01:35:51.908Z,71.20
2022-12-19T01:38:57.385Z,75.30
2022-12-19T01:41:59.112Z,72.10
2022-12-19T01:45:13.553Z,79.60
2022-12-19T01:48:19.303Z,85.10
2022-12-19T01:51:24.517Z,84.70
2022-12-19T01:54:35.320Z,83.70
2022-12-19T01:57:38.000Z,75.40
2022-12-19T02:00:42.498Z,79.90
2022-12-19T02:03:45.242Z,77.70
2022-12-19T02:06:47.365Z,74.30
2022-12-19T02:09:56.961Z,71.70
2022-12-19T02:12:59.785Z,72.40
2022-12-19T02:16:24.580Z,59.70
2022-12-19T02:19:49.924Z,63.90
2022-12-19T02:23:00.585Z,68.10
2022-12-19T02:26:24.297Z,64.90
2022-12-19T02:29:34.356Z,64.30
2022-12-19T02:32:58.302Z,53.10
2022-12-19T02:36:08.584Z,61.60
2022-12-19T02:39:30.605Z,68.90
2022-12-19T02:42:39.364Z,60.10
2022-12-19T02:45:42.611Z,57.90
2022-12-19T02:48:44.736Z,56.60
2022-12-19T02:51:46.514Z,66.20
2022-12-19T02:54:50.280Z,63.00
2022-12-19T02:58:20.392Z,63.70
2022-12-19T03:01:41.034Z,47.50
2022-12-19T03:04:54.773Z,51.50
2022-12-19T03:08:04.139Z,56.80
2022-12-19T03:11:13.451Z,41.20
2022-12-19T03:14:19.323Z,51.20
2022-12-19T03:17:21.218Z,55.90
2022-12-19T03:20:26.537Z,52.80
2022-12-19T03:23:29.267Z,44.80
2022-12-19T03:27:00.361Z,48.50
2022-12-19T03:30:06.992Z,58.30
2022-12-19T03:33:10.246Z,71.70
2022-12-19T03:36:16.651Z,72.70
2022-12-19T03:39:19.707Z,60.40
2022-12-19T03:42:42.213Z,61.50
2022-12-19T03:45:58.216Z,62.10
2022-12-19T03:48:59.913Z,51.60
2022-12-19T03:52:19.685Z,46.20
2022-12-19T03:55:35.859Z,45.50
2022-12-19T03:58:40.389Z,52.10
2022-12-19T04:01:42.599Z,66.60
2022-12-19T04:04:46.723Z,70.30
2022-12-19T04:07:50.156Z,71.40
2022-12-19T04:10:55.925Z,86.40
2022-12-19T04:14:04.587Z,92.80
2022-12-19T04:17:18.156Z,91.60
2022-12-19T04:20:21.509Z,86.30
2022-12-19T04:23:29.314Z,82.00
2022-12-19T04:26:31.765Z,82.40
2022-12-19T04:29:35.860Z,90.50
2022-12-19T04:32:37.905Z,84.90
2022-12-19T04:35:39.787Z,90.80
2022-12-19T04:38:41.643Z,87.30
2022-12-19T04:41:43.404Z,92.40
2022-12-19T04:44:45.215Z,54.50
2022-12-19T04:47:46.932Z,66.30
2022-12-19T04:53:50.333Z,62.80
2022-12-19T04:56:53.409Z,88.10
2022-12-19T04:59:55.050Z,91.50
2022-12-19T05:02:56.926Z,45.30
2022-12-19T05:06:11.326Z,56.40
2022-12-19T05:09:13.161Z,81.60
2022-12-19T05:12:14.895Z,94.50
2022-12-19T05:15:17.280Z,99.50
2022-12-19T05:18:18.924Z,49.80
2022-12-19T05:24:23.415Z,97.20
2022-12-19T05:27:25.133Z,96.00
2022-12-19T05:30:27.399Z,87.60
2022-12-19T05:33:29.056Z,88.30
2022-12-19T05:36:32.655Z,85.70
2022-12-19T05:39:35.143Z,86.70
2022-12-19T05:42:36.947Z,87.70
2022-12-19T05:45:40.131Z,97.10
2022-12-19T05:48:41.793Z,91.20
2022-12-19T05:51:43.710Z,93.70
2022-12-19T05:54:45.885Z,76.10
2022-12-19T05:57:47.815Z,93.60
2022-12-19T06:00:49.618Z,95.30
2022-12-19T06:03:52.398Z,89.40
2022-12-19T06:06:54.082Z,91.10
2022-12-19T06:09:56.167Z,92.40
2022-12-19T06:12:57.757Z,91.90
2022-12-19T06:19:09.123Z,80.90
2022-12-19T06:22:12.268Z,88.30
2022-12-19T06:25:14.007Z,90.50
2022-12-19T06:28:15.874Z,89.10
2022-12-19T06:31:19.209Z,86.90
2022-12-19T06:34:47.022Z,90.10
2022-12-19T06:41:03.239Z,82.70
2022-12-19T06:44:07.654Z,76.50
2022-12-19T06:47:10.284Z,88.00
2022-12-19T06:53:13.627Z,114.90
2022-12-19T06:56:16.879Z,101.10
2022-12-19T06:59:18.593Z,88.60
2022-12-19T07:05:24.549Z,88.00
2022-12-19T07:08:29.795Z,90.70
2022-12-19T07:11:31.500Z,94.50
2022-12-19T07:14:33.473Z,93.90
2022-12-19T07:17:36.302Z,88.30
2022-12-19T07:20:44.826Z,90.60
2022-12-19T07:23:46.863Z,85.60
2022-12-19T07:26:48.608Z,86.50
2022-12-19T07:29:50.399Z,91.80
2022-12-19T07:32:52.053Z,94.20
2022-12-19T07:38:55.348Z,95.00
2022-12-19T07:41:57.001Z,95.50
2022-12-19T07:44:58.563Z,107.40
2022-12-19T07:51:02.959Z,101.80
2022-12-19T07:57:08.101Z,115.50
2022-12-19T08:00:10.439Z,109.20
2022-12-19T08:03:12.623Z,119.10
2022-12-19T08:06:14.532Z,124.20
2022-12-19T08:09:16.328Z,124.50
2022-12-19T08:15:19.616Z,126.30
2022-12-19T08:18:21.302Z,120.00
2022-12-19T08:24:26.841Z,114.90
2022-12-19T08:27:29.747Z,120.80
2022-12-19T08:30:31.422Z,126.60
2022-12-19T08:33:33.418Z,121.30
2022-12-19T08:39:37.339Z,128.90
2022-12-19T08:42:39.310Z,129.90
2022-12-19T08:45:41.112Z,128.70
2022-12-19T08:48:42.828Z,120.10
2022-12-19T08:51:44.597Z,124.20
2022-12-19T08:54:46.465Z,142.40
2022-12-19T09:00:55.511Z,167.20
2022-12-19T09:05:17.853Z,137.40
2022-12-19T09:07:21.935Z,142.30
2022-12-19T09:10:23.805Z,136.00
2022-12-19T09:16:28.943Z,136.20
2022-12-19T09:19:30.940Z,149.30
2022-12-19T09:25:34.421Z,143.20
2022-12-19T09:28:37.730Z,141.00
2022-12-19T09:31:39.387Z,134.80
2022-12-19T09:34:41.070Z,140.60
2022-12-19T09:37:42.865Z,134.20
2022-12-19T09:40:55.169Z,121.30
2022-12-19T09:44:16.247Z,108.30
2022-12-19T09:47:23.233Z,99.80
2022-12-19T09:50:52.639Z,92.10
2022-12-19T09:54:23.599Z,88.60
2022-12-19T09:57:48.458Z,83.20
2022-12-19T10:01:00.226Z,85.80
2022-12-19T10:04:12.161Z,86.50
2022-12-19T10:07:33.155Z,84.40
2022-12-19T10:12:39.583Z,87.50
2022-12-19T10:15:03.518Z,87.70
2022-12-19T10:18:15.534Z,82.10
2022-12-19T10:22:16.204Z,85.80
2022-12-19T10:25:26.243Z,94.00
2022-12-19T10:28:35.111Z,90.60
2022-12-19T10:31:41.614Z,86.80
2022-12-19T10:34:45.452Z,89.10
2022-12-19T10:38:05.758Z,90.90
2022-12-19T10:41:15.898Z,87.20
2022-12-19T10:44:18.538Z,91.30
2022-12-19T10:47:20.333Z,91.00
2022-12-19T10:53:29.811Z,86.10
2022-12-19T10:56:37.407Z,90.10
2022-12-19T10:59:39.830Z,89.20
2022-12-19T11:02:46.129Z,88.70
2022-12-19T11:05:58.387Z,88.60
2022-12-19T11:09:21.149Z,85.10
2022-12-19T11:16:09.512Z,79.00
2022-12-19T11:20:11.573Z,73.60
2022-12-19T11:29:18.092Z,75.00
2022-12-19T11:29:34.803Z,75.00
2022-12-19T11:30:38.646Z,69.70
2022-12-19T11:33:17.809Z,71.00
2022-12-19T11:36:39.674Z,68.00
2022-12-19T11:39:48.430Z,71.80
2022-12-19T11:43:25.463Z,71.00
2022-12-19T11:46:40.369Z,74.00
2022-12-19T11:49:46.344Z,72.70
2022-12-19T11:53:14.702Z,73.70
2022-12-19T11:59:36.232Z,74.90
2022-12-19T12:02:52.609Z,74.00
2022-12-19T12:05:56.646Z,71.40
2022-12-19T12:10:43.603Z,70.90
2022-12-19T12:22:47.337Z,66.80
2022-12-19T12:30:07.344Z,61.90
2022-12-19T12:31:12.277Z,74.70
2022-12-19T12:31:14.531Z,69.10
2022-12-19T12:31:49.678Z,66.90
2022-12-19T12:35:28.680Z,68.80
2022-12-19T12:35:28.788Z,74.90
2022-12-19T12:38:44.839Z,73.70
2022-12-19T12:42:03.847Z,75.90
2022-12-19T12:45:20.456Z,72.50
2022-12-19T12:48:39.044Z,72.00
2022-12-19T12:51:41.334Z,84.30
2022-12-19T12:54:44.724Z,75.80
2022-12-19T12:57:46.481Z,72.70
2022-12-19T13:01:09.225Z,74.60
2022-12-19T13:04:11.076Z,73.70
2022-12-19T13:07:35.041Z,63.70
2022-12-19T13:10:54.227Z,71.80
2022-12-19T13:13:58.474Z,76.60
2022-12-19T13:17:04.755Z,74.20
2022-12-19T13:20:06.483Z,75.00
2022-12-19T13:23:34.139Z,76.50
2022-12-19T13:26:51.344Z,91.30
2022-12-19T13:30:12.588Z,75.80
2022-12-19T13:33:15.823Z,56.50
2022-12-19T13:39:50.342Z,73.60
2022-12-19T13:40:22.533Z,73.40
2022-12-19T13:43:47.542Z,77.70
2022-12-19T13:46:49.777Z,77.00
2022-12-19T13:49:52.388Z,81.80
2022-12-19T13:52:54.307Z,80.30
2022-12-19T13:56:26.149Z,81.40
2022-12-19T13:59:33.439Z,88.50
2022-12-19T14:02:45.344Z,88.40
2022-12-19T14:06:18.689Z,84.70
2022-12-19T14:11:26.230Z,84.00
2022-12-19T14:13:48.394Z,79.80
2022-12-19T14:16:44.162Z,85.10
2022-12-19T14:19:49.863Z,76.60
2022-12-19T14:22:59.558Z,81.40
2022-12-19T14:28:17.738Z,79.40
2022-12-19T14:29:45.056Z,80.90
2022-12-19T14:33:47.424Z,79.90
2022-12-19T14:36:17.472Z,80.00
2022-12-19T14:39:42.033Z,77.00
2022-12-19T14:43:57.345Z,74.60
2022-12-19T14:53:52.227Z,70.70
2022-12-19T14:54:00.885Z,72.90
2022-12-19T14:54:50.269Z,75.30
2022-12-19T14:56:59.880Z,72.60
2022-12-19T15:00:50.949Z,78.20
2022-12-19T15:04:33.745Z,81.40
2022-12-19T15:07:25.890Z,79.80
2022-12-19T15:11:08.584Z,87.10
2022-12-19T15:14:52.682Z,94.40
2022-12-19T15:17:22.555Z,92.20
2022-12-19T15:20:24.254Z,89.60
2022-12-19T15:23:26.930Z,89.50
2022-12-19T15:26:31.263Z,94.30
2022-12-19T15:29:33.627Z,83.00
2022-12-19T15:32:35.373Z,80.60
2022-12-19T15:35:37.083Z,83.70
2022-12-19T15:41:41.761Z,100.10
2022-12-19T15:44:44.662Z,102.70
2022-12-19T15:47:48.175Z,92.60
2022-12-19T15:50:49.800Z,102.00
2022-12-19T15:53:51.557Z,90.70
2022-12-19T15:59:58.284Z,87.70
2022-12-19T16:06:21.932Z,92.10
2022-12-19T16:09:26.982Z,102.60
2022-12-19T16:12:37.832Z,100.30
2022-12-19T16:15:40.163Z,89.20
2022-12-19T16:18:42.710Z,99.10
2022-12-19T16:21:45.092Z,96.80
2022-12-19T16:24:47.104Z,90.10
2022-12-19T16:27:56.453Z,87.90
2022-12-19T16:30:59.393Z,94.50
2022-12-19T16:34:02.491Z,91.50
2022-12-19T16:37:04.352Z,91.70
2022-12-19T16:40:07.113Z,83.10
2022-12-19T16:43:27.128Z,79.90
2022-12-19T16:46:31.055Z,120.70
2022-12-19T16:49:33.054Z,99.00
2022-12-19T16:52:40.614Z,65.70
2022-12-19T16:55:45.814Z,88.30
2022-12-19T16:58:47.608Z,81.10
2022-12-19T17:04:54.140Z,81.50
2022-12-19T17:07:56.531Z,63.80
2022-12-19T17:10:58.708Z,74.80
2022-12-19T17:14:08.667Z,69.80
2022-12-19T17:17:14.312Z,81.80
2022-12-19T17:20:20.738Z,91.40
2022-12-19T17:23:24.084Z,89.20
2022-12-19T17:26:25.946Z,161.80
2022-12-19T17:32:29.527Z,90.90
2022-12-19T17:35:35.366Z,92.00
2022-12-19T17:38:37.227Z,97.00
2022-12-19T17:41:38.854Z,85.10
2022-12-19T17:44:40.536Z,89.40
2022-12-19T17:53:46.189Z,89.10
2022-12-19T17:56:49.930Z,89.40
2022-12-19T17:59:51.657Z,85.40
2022-12-19T18:05:58.159Z,72.10
2022-12-19T18:09:02.696Z,84.30
2022-12-19T18:12:04.691Z,97.70
2022-12-19T18:15:06.854Z,99.00
2022-12-19T18:18:25.467Z,94.50
2022-12-19T18:21:27.109Z,92.70
2022-12-19T18:24:28.821Z,109.10
2022-12-19T18:30:34.005Z,143.50
2022-12-19T18:33:38.635Z,107.50
2022-12-19T18:36:42.375Z,98.60
2022-12-19T18:39:44.080Z,129.10
2022-12-19T18:42:46.129Z,131.90
2022-12-19T18:45:51.700Z,136.10
2022-12-19T18:48:53.469Z,121.90
2022-12-19T18:51:57.297Z,127.50
2022-12-19T18:58:00.734Z,128.80
2022-12-19T19:04:05.174Z,112.00
2022-12-19T19:07:10.126Z,94.70
2022-12-19T19:10:32.051Z,112.40
2022-12-19T19:16:36.802Z,111.70
2022-12-19T19:19:38.486Z,120.80
2022-12-19T19:22:40.443Z,112.60
2022-12-19T19:25:42.270Z,118.30
2022-12-19T19:28:50.295Z,114.50
2022-12-19T19:31:53.782Z,121.90
2022-12-19T19:34:55.888Z,123.80
2022-12-19T19:38:00.520Z,120.00
2022-12-19T19:41:02.361Z,123.60
2022-12-19T19:47:05.711Z,116.20
2022-12-19T19:53:09.700Z,105.20
2022-12-19T19:56:11.799Z,110.80
2022-12-19T19:59:13.592Z,120.50
2022-12-19T20:05:19.012Z,140.60
2022-12-19T20:11:22.386Z,84.80
2022-12-19T20:17:25.958Z,117.80
2022-12-19T20:20:27.751Z,142.50
2022-12-19T20:26:31.230Z,127.00
2022-12-19T20:32:34.705Z,159.90
2022-12-19T20:38:39.116Z,151.20
2022-12-19T20:41:40.875Z,149.40
2022-12-19T20:44:42.677Z,138.10
2022-12-19T20:50:45.870Z,145.60
2022-12-19T20:53:48.370Z,143.80
2022-12-19T20:56:50.066Z,143.00
2022-12-19T20:59:52.529Z,157.00
2022-12-19T21:06:19.910Z,165.40
2022-12-19T21:09:21.591Z,168.60
2022-12-19T21:12:23.267Z,159.90
2022-12-19T21:15:25.401Z,162.30
2022-12-19T21:18:27.753Z,157.50
2022-12-19T21:21:29.979Z,148.90
2022-12-19T21:24:33.433Z,163.80
2022-12-19T21:27:35.182Z,155.10
2022-12-19T21:30:37.421Z,144.80
2022-12-19T21:33:39.112Z,146.20
2022-12-19T21:36:40.955Z,143.90
2022-12-19T21:42:44.304Z,139.40
2022-12-19T21:48:49.326Z,137.50
2022-12-19T21:51:51.357Z,136.40
2022-12-19T21:54:53.117Z,138.50
2022-12-19T21:57:54.814Z,139.40
2022-12-19T22:01:08.511Z,145.00
2022-12-19T22:04:22.422Z,144.30
2022-12-19T22:07:24.228Z,133.50
2022-12-19T22:10:25.912Z,131.40
2022-12-19T22:13:28.420Z,124.20
2022-12-19T22:16:30.211Z,129.50
2022-12-19T22:22:33.677Z,133.10
2022-12-19T22:25:35.464Z,140.10
2022-12-19T22:31:41.006Z,133.90
2022-12-19T22:34:42.920Z,140.60
2022-12-19T22:37:44.799Z,135.00
2022-12-19T22:43:48.807Z,145.70
2022-12-19T22:46:51.276Z,134.70
2022-12-19T22:49:53.162Z,135.20
2022-12-19T22:55:56.613Z,142.60
2022-12-19T23:02:05.430Z,132.10
2022-12-19T23:05:07.991Z,132.30
2022-12-19T23:08:09.688Z,132.20
2022-12-19T23:11:15.284Z,132.70
2022-12-19T23:14:18.343Z,129.30
2022-12-19T23:17:20.284Z,133.70
2022-12-19T23:23:23.919Z,131.40
2022-12-19T23:26:33.674Z,131.10
2022-12-19T23:29:35.444Z,131.50
2022-12-19T23:32:37.241Z,129.90
2022-12-19T23:35:38.897Z,126.50
2022-12-19T23:38:42.377Z,134.90
2022-12-19T23:41:44.211Z,131.90
2022-12-19T23:44:46.214Z,133.40
2022-12-19T23:47:48.638Z,132.50
2022-12-19T23:50:57.940Z,125.80
2022-12-19T23:53:59.663Z,123.90
2022-12-19T23:57:01.351Z,122.90
